This is the latest recevied weather packets stored in our database for station/object KC5EZZ-2. If no packets are shown the sender has not sent any weather packets the latest 10 day(s).
| Time | Temp. | Humidity | Pressure | Rain* | Wind** | Luminosity | Snow |
|---|---|---|---|---|---|---|---|
| 1787895500 | 23.89° C | - | - | 0 mm | 0.89 m/s, 132° | - | - |
| 1787895196 | 23.89° C | - | - | 0 mm | 0.45 m/s, 219° | - | - |
| 1787894896 | 23.89° C | - | - | 0 mm | 0 m/s | - | - |
| 1787894596 | 23.89° C | - | - | 0 mm | 0 m/s | - | - |
| 1787894293 | 23.89° C | - | - | 0 mm | 1.79 m/s, 125° | - | - |
| 1787893994 | 23.33° C | - | - | 0 mm | 1.79 m/s, 131° | - | - |
| 1787893694 | 23.89° C | - | - | 0 mm | 1.79 m/s, 101° | - | - |
| 1787893392 | 24.44° C | - | - | 0 mm | 0 m/s | - | - |
| 1787893092 | 23.89° C | - | - | 0 mm | 1.79 m/s, 105° | - | - |
| 1787892795 | 23.89° C | - | - | 0 mm | 0.45 m/s, 108° | - | - |
| 1787892490 | 23.89° C | - | - | 0 mm | 0 m/s | - | - |
| 1787892190 | 23.89° C | - | - | 0 mm | 2.24 m/s, 66° | - | - |
| 1787891891 | 24.44° C | - | - | 0 mm | 0 m/s | - | - |
| 1787891588 | 24.44° C | - | - | 0 mm | 3.58 m/s, 41° | - | - |
| 1787891288 | 24.44° C | - | - | 0 mm | 1.79 m/s, 359° | - | - |
| 1787890989 | 24.44° C | - | - | 0 mm | 0 m/s | - | - |
| 1787890686 | 24.44° C | - | - | 0 mm | 0 m/s | - | - |
| 1787890387 | 24.44° C | - | - | 0 mm | 0 m/s | - | - |
| 1787890087 | 23.89° C | - | - | 0 mm | 0 m/s | - | - |
| 1787889784 | 23.89° C | - | - | 0 mm | 0 m/s | - | - |
| 1787889589 | 23.89° C | - | - | 0 mm | 1.79 m/s, 169° | - | - |
| 1787889485 | 23.89° C | - | - | 0 mm | 1.79 m/s, 169° | - | - |
| 1787889185 | 24.44° C | - | - | 0 mm | 1.34 m/s, 177° | - | - |
| 1787888883 | 24.44° C | - | - | 0 mm | 1.34 m/s, 108° | - | - |
| 1787888583 | 24.44° C | - | - | 0 mm | 0 m/s | - | - |
* Rain latest hour (hover to see other rain measurements)
** Current wind speed in m/s (hover to see current wind gust speed)